sensor_id;sensor_type;location;lat;lon;timestamp;P1;durP1;ratioP1;P2;durP2;ratioP2
52320;SDS011;38261;54.090;13.382;2022-07-22T00:00:23;3.80;;;3.40;;
52320;SDS011;38261;54.090;13.382;2022-07-22T00:01:45;6.17;;;3.70;;
52320;SDS011;38261;54.090;13.382;2022-07-22T00:03:08;5.13;;;3.60;;
52320;SDS011;38261;54.090;13.382;2022-07-22T00:04:30;6.77;;;3.60;;
52320;SDS011;38261;54.090;13.382;2022-07-22T00:05:53;5.50;;;3.73;;
52320;SDS011;38261;54.090;13.382;2022-07-22T00:07:15;5.27;;;3.60;;
52320;SDS011;38261;54.090;13.382;2022-07-22T00:08:37;7.63;;;3.50;;
52320;SDS011;38261;54.090;13.382;2022-07-22T00:09:59;5.67;;;4.77;;
52320;SDS011;38261;54.090;13.382;2022-07-22T00:11:22;11.40;;;4.60;;
52320;SDS011;38261;54.090;13.382;2022-07-22T00:12:44;9.23;;;4.20;;
52320;SDS011;38261;54.090;13.382;2022-07-22T00:14:07;6.67;;;4.03;;
52320;SDS011;38261;54.090;13.382;2022-07-22T00:15:29;5.03;;;3.87;;
52320;SDS011;38261;54.090;13.382;2022-07-22T00:16:51;7.30;;;4.10;;
52320;SDS011;38261;54.090;13.382;2022-07-22T00:18:14;10.50;;;5.00;;
52320;SDS011;38261;54.090;13.382;2022-07-22T00:19:36;5.40;;;4.10;;
52320;SDS011;38261;54.090;13.382;2022-07-22T00:20:58;5.77;;;4.20;;
52320;SDS011;38261;54.090;13.382;2022-07-22T00:22:21;4.60;;;3.70;;
52320;SDS011;38261;54.090;13.382;2022-07-22T00:23:43;4.60;;;3.50;;
52320;SDS011;38261;54.090;13.382;2022-07-22T00:25:05;4.40;;;3.77;;
52320;SDS011;38261;54.090;13.382;2022-07-22T00:26:28;3.93;;;3.53;;
52320;SDS011;38261;54.090;13.382;2022-07-22T00:27:50;5.93;;;3.50;;
52320;SDS011;38261;54.090;13.382;2022-07-22T00:29:12;4.20;;;3.20;;
52320;SDS011;38261;54.090;13.382;2022-07-22T00:30:34;4.33;;;3.93;;
52320;SDS011;38261;54.090;13.382;2022-07-22T00:31:57;7.30;;;4.80;;
52320;SDS011;38261;54.090;13.382;2022-07-22T00:33:19;6.03;;;3.93;;
52320;SDS011;38261;54.090;13.382;2022-07-22T00:34:41;5.43;;;4.07;;
52320;SDS011;38261;54.090;13.382;2022-07-22T00:36:03;5.40;;;4.10;;
52320;SDS011;38261;54.090;13.382;2022-07-22T00:37:26;5.13;;;3.80;;
52320;SDS011;38261;54.090;13.382;2022-07-22T00:38:48;8.57;;;4.20;;
52320;SDS011;38261;54.090;13.382;2022-07-22T00:40:10;4.17;;;3.13;;
52320;SDS011;38261;54.090;13.382;2022-07-22T00:41:33;6.43;;;3.67;;
52320;SDS011;38261;54.090;13.382;2022-07-22T00:42:59;5.90;;;3.90;;
52320;SDS011;38261;54.090;13.382;2022-07-22T00:44:22;7.50;;;4.00;;
52320;SDS011;38261;54.090;13.382;2022-07-22T00:45:47;4.33;;;3.70;;
52320;SDS011;38261;54.090;13.382;2022-07-22T00:47:09;5.13;;;4.37;;
52320;SDS011;38261;54.090;13.382;2022-07-22T00:48:31;4.50;;;4.10;;
52320;SDS011;38261;54.090;13.382;2022-07-22T00:49:53;5.33;;;3.50;;
52320;SDS011;38261;54.090;13.382;2022-07-22T00:51:17;5.70;;;4.63;;
52320;SDS011;38261;54.090;13.382;2022-07-22T00:52:41;5.80;;;4.77;;
52320;SDS011;38261;54.090;13.382;2022-07-22T00:54:03;4.60;;;3.90;;
52320;SDS011;38261;54.090;13.382;2022-07-22T00:55:25;6.87;;;3.73;;
52320;SDS011;38261;54.090;13.382;2022-07-22T00:56:48;6.67;;;3.87;;
52320;SDS011;38261;54.090;13.382;2022-07-22T00:58:11;6.10;;;4.43;;
52320;SDS011;38261;54.090;13.382;2022-07-22T00:59:33;4.20;;;3.80;;
52320;SDS011;38261;54.090;13.382;2022-07-22T01:00:55;4.70;;;4.20;;
52320;SDS011;38261;54.090;13.382;2022-07-22T01:02:18;5.37;;;4.00;;
52320;SDS011;38261;54.090;13.382;2022-07-22T01:03:40;8.27;;;5.10;;
52320;SDS011;38261;54.090;13.382;2022-07-22T01:05:10;4.03;;;3.63;;
52320;SDS011;38261;54.090;13.382;2022-07-22T01:06:32;4.67;;;4.20;;
52320;SDS011;38261;54.090;13.382;2022-07-22T01:07:54;4.17;;;3.77;;
52320;SDS011;38261;54.090;13.382;2022-07-22T01:09:16;4.10;;;3.70;;
52320;SDS011;38261;54.090;13.382;2022-07-22T01:10:38;9.27;;;4.30;;
52320;SDS011;38261;54.090;13.382;2022-07-22T01:12:01;5.47;;;4.00;;
52320;SDS011;38261;54.090;13.382;2022-07-22T01:13:24;4.80;;;4.03;;
52320;SDS011;38261;54.090;13.382;2022-07-22T01:14:46;5.07;;;3.90;;
52320;SDS011;38261;54.090;13.382;2022-07-22T01:16:09;5.47;;;4.23;;
52320;SDS011;38261;54.090;13.382;2022-07-22T01:17:32;6.27;;;4.03;;
52320;SDS011;38261;54.090;13.382;2022-07-22T01:18:54;4.97;;;4.20;;
52320;SDS011;38261;54.090;13.382;2022-07-22T01:20:17;5.30;;;4.10;;
52320;SDS011;38261;54.090;13.382;2022-07-22T01:21:39;7.07;;;4.40;;
52320;SDS011;38261;54.090;13.382;2022-07-22T01:23:01;7.50;;;4.17;;
52320;SDS011;38261;54.090;13.382;2022-07-22T01:24:24;6.57;;;4.73;;
52320;SDS011;38261;54.090;13.382;2022-07-22T01:25:46;6.13;;;4.73;;
52320;SDS011;38261;54.090;13.382;2022-07-22T01:27:08;13.33;;;8.30;;
52320;SDS011;38261;54.090;13.382;2022-07-22T01:28:31;8.57;;;6.27;;
52320;SDS011;38261;54.090;13.382;2022-07-22T01:29:53;5.73;;;4.77;;
52320;SDS011;38261;54.090;13.382;2022-07-22T01:31:16;4.37;;;3.97;;
52320;SDS011;38261;54.090;13.382;2022-07-22T01:32:38;11.47;;;4.43;;
52320;SDS011;38261;54.090;13.382;2022-07-22T01:34:00;8.33;;;5.07;;
52320;SDS011;38261;54.090;13.382;2022-07-22T01:35:22;7.30;;;4.73;;
52320;SDS011;38261;54.090;13.382;2022-07-22T01:36:45;6.30;;;4.57;;
52320;SDS011;38261;54.090;13.382;2022-07-22T01:38:07;9.07;;;5.20;;
52320;SDS011;38261;54.090;13.382;2022-07-22T01:39:29;5.20;;;4.63;;
52320;SDS011;38261;54.090;13.382;2022-07-22T01:40:51;6.97;;;4.83;;
52320;SDS011;38261;54.090;13.382;2022-07-22T01:42:14;6.63;;;4.83;;
52320;SDS011;38261;54.090;13.382;2022-07-22T01:43:37;6.10;;;5.20;;
52320;SDS011;38261;54.090;13.382;2022-07-22T01:44:59;6.70;;;4.47;;
52320;SDS011;38261;54.090;13.382;2022-07-22T01:46:21;5.83;;;5.23;;
52320;SDS011;38261;54.090;13.382;2022-07-22T01:47:45;6.67;;;5.17;;
52320;SDS011;38261;54.090;13.382;2022-07-22T01:49:07;6.23;;;4.73;;
52320;SDS011;38261;54.090;13.382;2022-07-22T01:50:29;6.47;;;4.97;;
52320;SDS011;38261;54.090;13.382;2022-07-22T01:51:51;9.60;;;4.50;;
52320;SDS011;38261;54.090;13.382;2022-07-22T01:53:14;5.77;;;4.60;;
52320;SDS011;38261;54.090;13.382;2022-07-22T01:54:36;6.80;;;4.83;;
52320;SDS011;38261;54.090;13.382;2022-07-22T01:55:58;7.70;;;5.40;;
52320;SDS011;38261;54.090;13.382;2022-07-22T01:57:20;6.60;;;5.00;;
52320;SDS011;38261;54.090;13.382;2022-07-22T01:58:43;9.10;;;5.20;;
52320;SDS011;38261;54.090;13.382;2022-07-22T02:00:05;6.73;;;5.10;;
52320;SDS011;38261;54.090;13.382;2022-07-22T02:01:29;7.33;;;6.10;;
52320;SDS011;38261;54.090;13.382;2022-07-22T02:02:52;7.20;;;5.47;;
52320;SDS011;38261;54.090;13.382;2022-07-22T02:04:14;8.23;;;5.57;;
52320;SDS011;38261;54.090;13.382;2022-07-22T02:05:36;7.30;;;5.03;;
52320;SDS011;38261;54.090;13.382;2022-07-22T02:06:59;7.90;;;5.00;;
52320;SDS011;38261;54.090;13.382;2022-07-22T02:08:21;8.70;;;5.57;;
52320;SDS011;38261;54.090;13.382;2022-07-22T02:09:43;7.40;;;5.03;;
52320;SDS011;38261;54.090;13.382;2022-07-22T02:11:06;7.27;;;5.30;;
52320;SDS011;38261;54.090;13.382;2022-07-22T02:12:29;10.10;;;6.17;;
52320;SDS011;38261;54.090;13.382;2022-07-22T02:13:51;6.73;;;5.20;;
52320;SDS011;38261;54.090;13.382;2022-07-22T02:15:13;7.90;;;5.47;;
52320;SDS011;38261;54.090;13.382;2022-07-22T02:16:36;8.20;;;5.07;;
52320;SDS011;38261;54.090;13.382;2022-07-22T02:17:58;6.97;;;5.60;;
52320;SDS011;38261;54.090;13.382;2022-07-22T02:19:20;6.80;;;5.33;;
52320;SDS011;38261;54.090;13.382;2022-07-22T02:20:43;10.80;;;5.50;;
52320;SDS011;38261;54.090;13.382;2022-07-22T02:22:06;7.30;;;5.40;;
52320;SDS011;38261;54.090;13.382;2022-07-22T02:23:28;9.07;;;5.30;;
52320;SDS011;38261;54.090;13.382;2022-07-22T02:24:50;8.77;;;5.10;;
52320;SDS011;38261;54.090;13.382;2022-07-22T02:26:12;7.20;;;5.80;;
52320;SDS011;38261;54.090;13.382;2022-07-22T02:27:35;7.10;;;5.50;;
52320;SDS011;38261;54.090;13.382;2022-07-22T02:28:57;5.90;;;5.30;;
52320;SDS011;38261;54.090;13.382;2022-07-22T02:30:20;5.67;;;5.07;;
52320;SDS011;38261;54.090;13.382;2022-07-22T02:31:42;7.40;;;5.57;;
52320;SDS011;38261;54.090;13.382;2022-07-22T02:33:04;6.57;;;5.33;;
52320;SDS011;38261;54.090;13.382;2022-07-22T02:34:27;6.70;;;5.50;;
52320;SDS011;38261;54.090;13.382;2022-07-22T02:35:50;9.00;;;5.00;;
52320;SDS011;38261;54.090;13.382;2022-07-22T02:37:12;8.60;;;5.67;;
52320;SDS011;38261;54.090;13.382;2022-07-22T02:38:34;8.93;;;5.97;;
52320;SDS011;38261;54.090;13.382;2022-07-22T02:39:57;6.60;;;5.57;;
52320;SDS011;38261;54.090;13.382;2022-07-22T02:41:19;6.50;;;5.50;;
52320;SDS011;38261;54.090;13.382;2022-07-22T02:42:41;7.47;;;5.70;;
52320;SDS011;38261;54.090;13.382;2022-07-22T02:44:04;11.57;;;5.77;;
52320;SDS011;38261;54.090;13.382;2022-07-22T02:45:26;8.07;;;6.07;;
52320;SDS011;38261;54.090;13.382;2022-07-22T02:46:48;7.07;;;5.83;;
52320;SDS011;38261;54.090;13.382;2022-07-22T02:48:10;8.80;;;5.60;;
52320;SDS011;38261;54.090;13.382;2022-07-22T02:49:33;9.37;;;6.20;;
52320;SDS011;38261;54.090;13.382;2022-07-22T02:50:55;8.73;;;6.20;;
52320;SDS011;38261;54.090;13.382;2022-07-22T02:52:17;6.13;;;5.23;;
52320;SDS011;38261;54.090;13.382;2022-07-22T02:53:39;7.90;;;5.80;;
52320;SDS011;38261;54.090;13.382;2022-07-22T02:55:01;7.97;;;5.50;;
52320;SDS011;38261;54.090;13.382;2022-07-22T02:56:24;7.97;;;5.70;;
52320;SDS011;38261;54.090;13.382;2022-07-22T02:57:46;10.33;;;6.00;;
52320;SDS011;38261;54.090;13.382;2022-07-22T02:59:08;7.77;;;6.37;;
52320;SDS011;38261;54.090;13.382;2022-07-22T03:00:30;7.33;;;6.20;;
52320;SDS011;38261;54.090;13.382;2022-07-22T03:01:52;9.23;;;6.83;;
52320;SDS011;38261;54.090;13.382;2022-07-22T03:03:15;6.90;;;5.60;;
52320;SDS011;38261;54.090;13.382;2022-07-22T03:04:37;7.73;;;5.80;;
52320;SDS011;38261;54.090;13.382;2022-07-22T03:05:59;8.43;;;5.80;;
52320;SDS011;38261;54.090;13.382;2022-07-22T03:07:21;8.37;;;6.00;;
52320;SDS011;38261;54.090;13.382;2022-07-22T03:08:43;12.50;;;6.80;;
52320;SDS011;38261;54.090;13.382;2022-07-22T03:10:06;16.70;;;6.50;;
52320;SDS011;38261;54.090;13.382;2022-07-22T03:11:28;8.00;;;6.30;;
52320;SDS011;38261;54.090;13.382;2022-07-22T03:12:50;9.03;;;6.67;;
52320;SDS011;38261;54.090;13.382;2022-07-22T03:14:12;7.63;;;6.03;;
52320;SDS011;38261;54.090;13.382;2022-07-22T03:15:35;7.93;;;6.30;;
52320;SDS011;38261;54.090;13.382;2022-07-22T03:16:57;10.13;;;6.40;;
52320;SDS011;38261;54.090;13.382;2022-07-22T03:18:20;8.70;;;7.03;;
52320;SDS011;38261;54.090;13.382;2022-07-22T03:19:42;8.93;;;7.00;;
52320;SDS011;38261;54.090;13.382;2022-07-22T03:21:04;6.27;;;5.13;;
52320;SDS011;38261;54.090;13.382;2022-07-22T03:22:26;10.37;;;6.87;;
52320;SDS011;38261;54.090;13.382;2022-07-22T03:23:48;9.30;;;6.83;;
52320;SDS011;38261;54.090;13.382;2022-07-22T03:25:15;7.10;;;6.40;;
52320;SDS011;38261;54.090;13.382;2022-07-22T03:26:37;7.20;;;5.83;;
52320;SDS011;38261;54.090;13.382;2022-07-22T03:27:59;9.33;;;6.60;;
52320;SDS011;38261;54.090;13.382;2022-07-22T03:29:22;10.73;;;6.00;;
52320;SDS011;38261;54.090;13.382;2022-07-22T03:30:46;8.50;;;6.37;;
52320;SDS011;38261;54.090;13.382;2022-07-22T03:32:08;10.97;;;6.80;;
52320;SDS011;38261;54.090;13.382;2022-07-22T03:33:31;11.70;;;6.57;;
52320;SDS011;38261;54.090;13.382;2022-07-22T03:34:53;11.50;;;7.30;;
52320;SDS011;38261;54.090;13.382;2022-07-22T03:36:24;14.20;;;7.77;;
52320;SDS011;38261;54.090;13.382;2022-07-22T03:37:46;11.87;;;7.70;;
52320;SDS011;38261;54.090;13.382;2022-07-22T03:39:08;9.30;;;7.30;;
52320;SDS011;38261;54.090;13.382;2022-07-22T03:40:30;11.77;;;9.17;;
52320;SDS011;38261;54.090;13.382;2022-07-22T03:41:53;11.50;;;7.33;;
52320;SDS011;38261;54.090;13.382;2022-07-22T03:43:15;11.00;;;7.83;;
52320;SDS011;38261;54.090;13.382;2022-07-22T03:44:37;11.83;;;8.20;;
52320;SDS011;38261;54.090;13.382;2022-07-22T03:45:59;13.90;;;8.70;;
52320;SDS011;38261;54.090;13.382;2022-07-22T03:47:22;11.53;;;8.43;;
52320;SDS011;38261;54.090;13.382;2022-07-22T03:48:44;11.27;;;8.07;;
52320;SDS011;38261;54.090;13.382;2022-07-22T03:50:06;9.30;;;7.40;;
52320;SDS011;38261;54.090;13.382;2022-07-22T03:51:29;11.53;;;7.97;;
52320;SDS011;38261;54.090;13.382;2022-07-22T03:52:55;9.50;;;8.17;;
52320;SDS011;38261;54.090;13.382;2022-07-22T03:54:17;12.60;;;7.80;;
52320;SDS011;38261;54.090;13.382;2022-07-22T03:55:40;10.10;;;7.73;;
52320;SDS011;38261;54.090;13.382;2022-07-22T03:57:02;9.13;;;7.40;;
52320;SDS011;38261;54.090;13.382;2022-07-22T03:58:24;10.93;;;7.50;;
52320;SDS011;38261;54.090;13.382;2022-07-22T03:59:48;9.50;;;7.20;;
52320;SDS011;38261;54.090;13.382;2022-07-22T04:01:10;10.73;;;7.17;;
52320;SDS011;38261;54.090;13.382;2022-07-22T04:03:35;9.97;;;6.80;;
52320;SDS011;38261;54.090;13.382;2022-07-22T04:04:57;9.27;;;6.83;;
52320;SDS011;38261;54.090;13.382;2022-07-22T04:06:19;9.47;;;7.17;;
52320;SDS011;38261;54.090;13.382;2022-07-22T04:07:41;7.63;;;6.63;;
52320;SDS011;38261;54.090;13.382;2022-07-22T04:09:04;8.10;;;6.97;;
52320;SDS011;38261;54.090;13.382;2022-07-22T04:10:26;8.93;;;7.30;;
52320;SDS011;38261;54.090;13.382;2022-07-22T04:11:48;11.23;;;7.60;;
52320;SDS011;38261;54.090;13.382;2022-07-22T04:13:12;8.93;;;6.97;;
52320;SDS011;38261;54.090;13.382;2022-07-22T04:14:34;8.23;;;6.87;;
52320;SDS011;38261;54.090;13.382;2022-07-22T04:15:56;8.63;;;6.40;;
52320;SDS011;38261;54.090;13.382;2022-07-22T04:17:18;9.87;;;7.03;;
52320;SDS011;38261;54.090;13.382;2022-07-22T04:18:40;9.40;;;7.00;;
52320;SDS011;38261;54.090;13.382;2022-07-22T04:20:02;9.73;;;7.00;;
52320;SDS011;38261;54.090;13.382;2022-07-22T04:21:26;8.03;;;6.40;;
52320;SDS011;38261;54.090;13.382;2022-07-22T04:22:48;7.03;;;6.33;;
52320;SDS011;38261;54.090;13.382;2022-07-22T04:24:11;7.70;;;6.20;;
52320;SDS011;38261;54.090;13.382;2022-07-22T04:25:33;8.87;;;7.10;;
52320;SDS011;38261;54.090;13.382;2022-07-22T04:26:55;8.00;;;7.20;;
52320;SDS011;38261;54.090;13.382;2022-07-22T04:28:17;11.20;;;7.27;;
52320;SDS011;38261;54.090;13.382;2022-07-22T04:29:40;8.30;;;7.40;;
52320;SDS011;38261;54.090;13.382;2022-07-22T04:31:02;12.33;;;8.00;;
52320;SDS011;38261;54.090;13.382;2022-07-22T04:32:25;13.03;;;8.43;;
52320;SDS011;38261;54.090;13.382;2022-07-22T04:33:47;12.67;;;8.20;;
52320;SDS011;38261;54.090;13.382;2022-07-22T04:35:10;8.97;;;7.50;;
52320;SDS011;38261;54.090;13.382;2022-07-22T04:36:32;10.73;;;7.47;;
52320;SDS011;38261;54.090;13.382;2022-07-22T04:37:54;10.70;;;7.07;;
52320;SDS011;38261;54.090;13.382;2022-07-22T04:39:16;11.87;;;7.80;;
52320;SDS011;38261;54.090;13.382;2022-07-22T04:40:39;9.50;;;7.90;;
52320;SDS011;38261;54.090;13.382;2022-07-22T04:42:01;9.67;;;8.70;;
52320;SDS011;38261;54.090;13.382;2022-07-22T04:43:23;9.50;;;8.00;;
52320;SDS011;38261;54.090;13.382;2022-07-22T04:44:45;10.20;;;8.80;;
52320;SDS011;38261;54.090;13.382;2022-07-22T04:46:09;9.93;;;8.60;;
52320;SDS011;38261;54.090;13.382;2022-07-22T04:47:31;11.33;;;8.40;;
52320;SDS011;38261;54.090;13.382;2022-07-22T04:48:53;12.53;;;8.70;;
52320;SDS011;38261;54.090;13.382;2022-07-22T04:50:16;12.57;;;9.20;;
52320;SDS011;38261;54.090;13.382;2022-07-22T04:51:38;14.37;;;9.73;;
52320;SDS011;38261;54.090;13.382;2022-07-22T04:53:00;12.50;;;10.40;;
52320;SDS011;38261;54.090;13.382;2022-07-22T04:54:24;13.93;;;9.13;;
52320;SDS011;38261;54.090;13.382;2022-07-22T04:55:47;12.67;;;9.80;;
52320;SDS011;38261;54.090;13.382;2022-07-22T04:57:09;15.23;;;10.03;;
52320;SDS011;38261;54.090;13.382;2022-07-22T04:58:31;12.57;;;9.87;;
52320;SDS011;38261;54.090;13.382;2022-07-22T04:59:54;18.07;;;9.93;;
52320;SDS011;38261;54.090;13.382;2022-07-22T05:01:16;14.83;;;10.43;;
52320;SDS011;38261;54.090;13.382;2022-07-22T05:02:38;12.93;;;9.60;;
52320;SDS011;38261;54.090;13.382;2022-07-22T05:04:00;12.53;;;9.60;;
52320;SDS011;38261;54.090;13.382;2022-07-22T05:05:22;13.00;;;10.00;;
52320;SDS011;38261;54.090;13.382;2022-07-22T05:06:46;13.90;;;10.10;;
52320;SDS011;38261;54.090;13.382;2022-07-22T05:08:08;17.40;;;10.60;;
52320;SDS011;38261;54.090;13.382;2022-07-22T05:09:30;14.60;;;10.50;;
52320;SDS011;38261;54.090;13.382;2022-07-22T05:10:52;17.13;;;10.73;;
52320;SDS011;38261;54.090;13.382;2022-07-22T05:12:14;14.70;;;10.90;;
52320;SDS011;38261;54.090;13.382;2022-07-22T05:13:36;17.90;;;10.53;;
52320;SDS011;38261;54.090;13.382;2022-07-22T05:14:59;13.67;;;11.10;;
52320;SDS011;38261;54.090;13.382;2022-07-22T05:16:21;14.77;;;10.23;;
52320;SDS011;38261;54.090;13.382;2022-07-22T05:17:44;15.23;;;9.70;;
52320;SDS011;38261;54.090;13.382;2022-07-22T05:19:07;13.00;;;10.67;;
52320;SDS011;38261;54.090;13.382;2022-07-22T05:20:30;11.90;;;9.77;;
52320;SDS011;38261;54.090;13.382;2022-07-22T05:21:53;17.10;;;11.20;;
52320;SDS011;38261;54.090;13.382;2022-07-22T05:23:15;16.73;;;10.80;;
52320;SDS011;38261;54.090;13.382;2022-07-22T05:24:37;16.23;;;13.00;;
52320;SDS011;38261;54.090;13.382;2022-07-22T05:25:59;17.70;;;13.07;;
52320;SDS011;38261;54.090;13.382;2022-07-22T05:27:22;17.47;;;12.70;;
52320;SDS011;38261;54.090;13.382;2022-07-22T05:28:44;16.57;;;12.23;;
52320;SDS011;38261;54.090;13.382;2022-07-22T05:30:06;23.60;;;13.93;;
52320;SDS011;38261;54.090;13.382;2022-07-22T05:31:29;18.77;;;13.33;;
52320;SDS011;38261;54.090;13.382;2022-07-22T05:32:52;18.53;;;13.60;;
52320;SDS011;38261;54.090;13.382;2022-07-22T05:34:15;20.00;;;12.37;;
52320;SDS011;38261;54.090;13.382;2022-07-22T05:35:37;18.63;;;13.23;;
52320;SDS011;38261;54.090;13.382;2022-07-22T05:36:59;20.17;;;13.67;;
52320;SDS011;38261;54.090;13.382;2022-07-22T05:38:21;17.07;;;12.70;;
52320;SDS011;38261;54.090;13.382;2022-07-22T05:39:43;15.93;;;12.37;;
52320;SDS011;38261;54.090;13.382;2022-07-22T05:41:06;17.80;;;11.80;;
52320;SDS011;38261;54.090;13.382;2022-07-22T05:42:28;15.73;;;12.13;;
52320;SDS011;38261;54.090;13.382;2022-07-22T05:43:50;24.70;;;15.60;;
52320;SDS011;38261;54.090;13.382;2022-07-22T05:45:12;20.73;;;14.20;;
52320;SDS011;38261;54.090;13.382;2022-07-22T05:46:34;32.77;;;19.20;;
52320;SDS011;38261;54.090;13.382;2022-07-22T05:47:56;19.60;;;14.60;;
52320;SDS011;38261;54.090;13.382;2022-07-22T05:49:19;18.97;;;11.50;;
52320;SDS011;38261;54.090;13.382;2022-07-22T05:50:41;16.40;;;12.50;;
52320;SDS011;38261;54.090;13.382;2022-07-22T05:52:03;16.50;;;11.93;;
52320;SDS011;38261;54.090;13.382;2022-07-22T05:53:25;16.20;;;12.20;;
52320;SDS011;38261;54.090;13.382;2022-07-22T05:54:48;17.10;;;11.87;;
52320;SDS011;38261;54.090;13.382;2022-07-22T05:56:10;18.47;;;13.17;;
52320;SDS011;38261;54.090;13.382;2022-07-22T05:57:32;18.90;;;11.70;;
52320;SDS011;38261;54.090;13.382;2022-07-22T05:58:54;15.57;;;11.60;;
52320;SDS011;38261;54.090;13.382;2022-07-22T06:00:18;15.73;;;12.17;;
52320;SDS011;38261;54.090;13.382;2022-07-22T06:01:40;13.57;;;10.77;;
52320;SDS011;38261;54.090;13.382;2022-07-22T06:03:02;17.40;;;11.93;;
52320;SDS011;38261;54.090;13.382;2022-07-22T06:04:24;15.57;;;10.83;;
52320;SDS011;38261;54.090;13.382;2022-07-22T06:05:47;15.17;;;11.77;;
52320;SDS011;38261;54.090;13.382;2022-07-22T06:07:09;14.30;;;11.60;;
52320;SDS011;38261;54.090;13.382;2022-07-22T06:08:31;18.10;;;11.80;;
52320;SDS011;38261;54.090;13.382;2022-07-22T06:09:54;16.23;;;12.00;;
52320;SDS011;38261;54.090;13.382;2022-07-22T06:11:16;16.97;;;12.90;;
52320;SDS011;38261;54.090;13.382;2022-07-22T06:12:38;17.57;;;12.70;;
52320;SDS011;38261;54.090;13.382;2022-07-22T06:14:00;19.00;;;12.30;;
52320;SDS011;38261;54.090;13.382;2022-07-22T06:15:22;15.70;;;11.93;;
52320;SDS011;38261;54.090;13.382;2022-07-22T06:16:47;13.90;;;11.57;;
52320;SDS011;38261;54.090;13.382;2022-07-22T06:18:09;14.27;;;11.63;;
52320;SDS011;38261;54.090;13.382;2022-07-22T06:19:32;16.27;;;12.07;;
52320;SDS011;38261;54.090;13.382;2022-07-22T06:20:54;14.70;;;12.00;;
52320;SDS011;38261;54.090;13.382;2022-07-22T06:22:18;15.67;;;11.30;;
52320;SDS011;38261;54.090;13.382;2022-07-22T06:23:40;20.80;;;12.47;;
52320;SDS011;38261;54.090;13.382;2022-07-22T06:25:03;17.90;;;13.33;;
52320;SDS011;38261;54.090;13.382;2022-07-22T06:26:45;18.73;;;13.37;;
52320;SDS011;38261;54.090;13.382;2022-07-22T06:28:08;19.50;;;12.93;;
52320;SDS011;38261;54.090;13.382;2022-07-22T06:29:30;21.60;;;13.10;;
52320;SDS011;38261;54.090;13.382;2022-07-22T06:30:52;22.27;;;15.20;;
52320;SDS011;38261;54.090;13.382;2022-07-22T06:32:14;22.13;;;14.80;;
52320;SDS011;38261;54.090;13.382;2022-07-22T06:33:41;21.03;;;14.27;;
52320;SDS011;38261;54.090;13.382;2022-07-22T06:35:03;17.80;;;12.97;;
52320;SDS011;38261;54.090;13.382;2022-07-22T06:36:25;22.07;;;14.73;;
52320;SDS011;38261;54.090;13.382;2022-07-22T06:37:47;23.53;;;13.70;;
52320;SDS011;38261;54.090;13.382;2022-07-22T06:39:26;21.70;;;14.43;;
52320;SDS011;38261;54.090;13.382;2022-07-22T06:40:48;22.70;;;13.57;;
52320;SDS011;38261;54.090;13.382;2022-07-22T06:42:10;18.80;;;14.07;;
52320;SDS011;38261;54.090;13.382;2022-07-22T06:43:32;16.07;;;12.80;;
52320;SDS011;38261;54.090;13.382;2022-07-22T06:44:55;20.47;;;13.23;;
52320;SDS011;38261;54.090;13.382;2022-07-22T06:46:17;18.37;;;13.03;;
52320;SDS011;38261;54.090;13.382;2022-07-22T06:47:41;16.83;;;12.83;;
52320;SDS011;38261;54.090;13.382;2022-07-22T06:49:05;17.73;;;13.90;;
52320;SDS011;38261;54.090;13.382;2022-07-22T06:50:31;19.90;;;12.50;;
52320;SDS011;38261;54.090;13.382;2022-07-22T06:51:54;19.57;;;13.43;;
52320;SDS011;38261;54.090;13.382;2022-07-22T06:53:16;22.73;;;14.00;;
52320;SDS011;38261;54.090;13.382;2022-07-22T06:54:38;18.60;;;12.60;;
52320;SDS011;38261;54.090;13.382;2022-07-22T06:56:00;21.97;;;13.57;;
52320;SDS011;38261;54.090;13.382;2022-07-22T06:57:27;16.43;;;12.30;;
52320;SDS011;38261;54.090;13.382;2022-07-22T06:58:50;18.93;;;13.30;;
52320;SDS011;38261;54.090;13.382;2022-07-22T07:00:12;17.30;;;13.47;;
52320;SDS011;38261;54.090;13.382;2022-07-22T07:01:34;18.17;;;13.60;;
52320;SDS011;38261;54.090;13.382;2022-07-22T07:03:00;17.73;;;13.20;;
52320;SDS011;38261;54.090;13.382;2022-07-22T07:04:42;15.97;;;13.10;;
52320;SDS011;38261;54.090;13.382;2022-07-22T07:06:06;18.20;;;13.07;;
52320;SDS011;38261;54.090;13.382;2022-07-22T07:07:30;15.17;;;11.90;;
52320;SDS011;38261;54.090;13.382;2022-07-22T07:08:57;16.30;;;12.40;;
52320;SDS011;38261;54.090;13.382;2022-07-22T07:10:20;15.50;;;12.07;;
52320;SDS011;38261;54.090;13.382;2022-07-22T07:11:43;14.43;;;10.60;;
52320;SDS011;38261;54.090;13.382;2022-07-22T07:13:05;19.50;;;11.90;;
52320;SDS011;38261;54.090;13.382;2022-07-22T07:14:27;13.50;;;11.10;;
52320;SDS011;38261;54.090;13.382;2022-07-22T07:15:49;15.33;;;12.13;;
52320;SDS011;38261;54.090;13.382;2022-07-22T07:17:11;17.30;;;11.33;;
52320;SDS011;38261;54.090;13.382;2022-07-22T07:18:35;13.50;;;11.60;;
52320;SDS011;38261;54.090;13.382;2022-07-22T07:19:57;14.00;;;11.53;;
52320;SDS011;38261;54.090;13.382;2022-07-22T07:21:19;16.23;;;11.27;;
52320;SDS011;38261;54.090;13.382;2022-07-22T07:22:44;16.63;;;13.10;;
52320;SDS011;38261;54.090;13.382;2022-07-22T07:24:06;15.23;;;12.37;;
52320;SDS011;38261;54.090;13.382;2022-07-22T07:25:29;19.03;;;11.77;;
52320;SDS011;38261;54.090;13.382;2022-07-22T07:26:51;13.30;;;11.07;;
52320;SDS011;38261;54.090;13.382;2022-07-22T07:28:13;14.63;;;11.03;;
52320;SDS011;38261;54.090;13.382;2022-07-22T07:29:35;12.97;;;10.43;;
52320;SDS011;38261;54.090;13.382;2022-07-22T07:30:58;20.33;;;11.60;;
52320;SDS011;38261;54.090;13.382;2022-07-22T07:32:21;16.83;;;12.03;;
52320;SDS011;38261;54.090;13.382;2022-07-22T07:33:43;21.07;;;13.53;;
52320;SDS011;38261;54.090;13.382;2022-07-22T07:35:05;20.33;;;12.17;;
52320;SDS011;38261;54.090;13.382;2022-07-22T07:36:27;14.67;;;11.60;;
52320;SDS011;38261;54.090;13.382;2022-07-22T07:37:50;17.70;;;12.00;;
52320;SDS011;38261;54.090;13.382;2022-07-22T07:39:12;14.47;;;11.70;;
52320;SDS011;38261;54.090;13.382;2022-07-22T07:40:34;18.50;;;12.47;;
52320;SDS011;38261;54.090;13.382;2022-07-22T07:41:56;14.30;;;10.97;;
52320;SDS011;38261;54.090;13.382;2022-07-22T07:43:18;16.53;;;12.00;;
52320;SDS011;38261;54.090;13.382;2022-07-22T07:44:41;15.80;;;12.03;;
52320;SDS011;38261;54.090;13.382;2022-07-22T07:46:04;9.17;;;6.20;;
52320;SDS011;38261;54.090;13.382;2022-07-22T07:47:26;5.27;;;3.93;;
52320;SDS011;38261;54.090;13.382;2022-07-22T07:48:48;4.93;;;3.00;;
52320;SDS011;38261;54.090;13.382;2022-07-22T07:50:11;5.97;;;2.87;;
52320;SDS011;38261;54.090;13.382;2022-07-22T07:51:33;2.53;;;2.20;;
52320;SDS011;38261;54.090;13.382;2022-07-22T07:52:55;3.00;;;2.17;;
52320;SDS011;38261;54.090;13.382;2022-07-22T07:54:18;2.60;;;1.90;;
52320;SDS011;38261;54.090;13.382;2022-07-22T07:55:42;3.57;;;2.50;;
52320;SDS011;38261;54.090;13.382;2022-07-22T07:57:05;3.97;;;2.23;;
52320;SDS011;38261;54.090;13.382;2022-07-22T07:58:28;7.13;;;2.37;;
52320;SDS011;38261;54.090;13.382;2022-07-22T07:59:59;3.13;;;2.10;;
52320;SDS011;38261;54.090;13.382;2022-07-22T08:01:22;6.13;;;2.20;;
52320;SDS011;38261;54.090;13.382;2022-07-22T08:03:04;3.73;;;1.97;;
52320;SDS011;38261;54.090;13.382;2022-07-22T08:04:27;6.53;;;2.90;;
52320;SDS011;38261;54.090;13.382;2022-07-22T08:05:57;3.83;;;2.20;;